KLM1635 LIME-LDDU
Flight info
| Callsign | KLM1635 |
|---|---|
| Flight time | 1h 5m |
| Altitude | 37000 |
| Route | LOGDI DCT GIPUK DCT EDUGI DCT SIPAL |
| Aircraft | A20N/M-SDE2E3FGHIRWXY/LB1 |
Departure
| Time | 2026-05-07 19:31 |
|---|---|
| Airport | Il Caravaggio International Airport (LIME) |
Arrival
| Time | 2026-05-07 20:36 |
|---|---|
| Airport | Dubrovnik Ruđer Bošković Airport (LDDU) |
| Time | Latitude | Longitude | Altitude | Speed | Heading |
|---|---|---|---|---|---|
| 2026-05-07 19:17 | 45.66746 | 9.69563 | 765 ft | 0 kts | 194° |
| 2026-05-07 19:18 | 45.66750 | 9.69564 | 765 ft | 2 kts | 194° |
| 2026-05-07 19:18 | 45.66769 | 9.69571 | 793 ft | 3 kts | 194° |
| 2026-05-07 19:19 | 45.66788 | 9.69577 | 793 ft | 3 kts | 189° |
| 2026-05-07 19:19 | 45.66808 | 9.69580 | 793 ft | 3 kts | 172° |
| 2026-05-07 19:19 | 45.66823 | 9.69574 | 793 ft | 2 kts | 120° |
| 2026-05-07 19:19 | 45.66825 | 9.69568 | 793 ft | 0 kts | 103° |
| 2026-05-07 19:22 | 45.66824 | 9.69573 | 793 ft | 0 kts | 103° |
| 2026-05-07 19:23 | 45.66820 | 9.69596 | 793 ft | 5 kts | 104° |
| 2026-05-07 19:24 | 45.66811 | 9.69642 | 793 ft | 4 kts | 106° |
| 2026-05-07 19:24 | 45.66804 | 9.69681 | 792 ft | 4 kts | 106° |
| 2026-05-07 19:24 | 45.66797 | 9.69716 | 792 ft | 3 kts | 106° |
| 2026-05-07 19:24 | 45.66791 | 9.69748 | 792 ft | 4 kts | 104° |
| 2026-05-07 19:25 | 45.66784 | 9.69789 | 792 ft | 4 kts | 103° |
| 2026-05-07 19:25 | 45.66777 | 9.69830 | 791 ft | 4 kts | 103° |
| 2026-05-07 19:25 | 45.66770 | 9.69870 | 791 ft | 7 kts | 105° |
| 2026-05-07 19:25 | 45.66750 | 9.69957 | 791 ft | 9 kts | 107° |
| 2026-05-07 19:26 | 45.66734 | 9.70046 | 790 ft | 11 kts | 103° |
| 2026-05-07 19:26 | 45.66710 | 9.70188 | 789 ft | 16 kts | 104° |
| 2026-05-07 19:26 | 45.66679 | 9.70354 | 788 ft | 18 kts | 104° |
| 2026-05-07 19:26 | 45.66646 | 9.70543 | 787 ft | 21 kts | 105° |
| 2026-05-07 19:27 | 45.66605 | 9.70754 | 785 ft | 23 kts | 105° |
| 2026-05-07 19:27 | 45.66562 | 9.70982 | 783 ft | 25 kts | 105° |
| 2026-05-07 19:27 | 45.66502 | 9.71224 | 782 ft | 27 kts | 108° |
| 2026-05-07 19:27 | 45.66454 | 9.71486 | 780 ft | 26 kts | 105° |
| 2026-05-07 19:28 | 45.66463 | 9.71743 | 778 ft | 27 kts | 73° |
| 2026-05-07 19:28 | 45.66466 | 9.71910 | 776 ft | 17 kts | 106° |
| 2026-05-07 19:28 | 45.66434 | 9.72082 | 775 ft | 19 kts | 103° |
| 2026-05-07 19:28 | 45.66399 | 9.72273 | 774 ft | 21 kts | 105° |
| 2026-05-07 19:29 | 45.66372 | 9.72467 | 773 ft | 14 kts | 84° |
| 2026-05-07 19:29 | 45.66425 | 9.72483 | 773 ft | 8 kts | 348° |
| 2026-05-07 19:29 | 45.66460 | 9.72438 | 773 ft | 6 kts | 279° |
| 2026-05-07 19:29 | 45.66462 | 9.72426 | 773 ft | 0 kts | 285° |
| 2026-05-07 19:30 | 45.66463 | 9.72418 | 773 ft | 6 kts | 285° |
| 2026-05-07 19:30 | 45.66540 | 9.72016 | 775 ft | 81 kts | 285° |
| 2026-05-07 19:31 | 45.66740 | 9.70940 | 783 ft | 141 kts | 285° |
| 2026-05-07 19:31 | 45.67021 | 9.69409 | 1067 ft | 167 kts | 284° |
| 2026-05-07 19:31 | 45.67245 | 9.67740 | 1725 ft | 173 kts | 275° |
| 2026-05-07 19:31 | 45.67078 | 9.66033 | 2361 ft | 181 kts | 246° |
| 2026-05-07 19:32 | 45.66255 | 9.64564 | 2687 ft | 202 kts | 213° |
| 2026-05-07 19:32 | 45.64944 | 9.63551 | 3016 ft | 227 kts | 212° |
| 2026-05-07 19:32 | 45.63705 | 9.62038 | 3674 ft | 239 kts | 226° |
| 2026-05-07 19:32 | 45.62542 | 9.60305 | 4566 ft | 243 kts | 226° |
| 2026-05-07 19:33 | 45.61361 | 9.58556 | 5474 ft | 246 kts | 226° |
| 2026-05-07 19:33 | 45.60128 | 9.56833 | 6365 ft | 250 kts | 217° |
| 2026-05-07 19:33 | 45.58554 | 9.55754 | 7177 ft | 255 kts | 192° |
| 2026-05-07 19:33 | 45.56770 | 9.55524 | 8039 ft | 259 kts | 182° |
| 2026-05-07 19:34 | 45.54958 | 9.55409 | 8905 ft | 262 kts | 183° |
| 2026-05-07 19:34 | 45.53123 | 9.55284 | 9778 ft | 266 kts | 183° |
| 2026-05-07 19:34 | 45.51288 | 9.55152 | 10559 ft | 269 kts | 184° |
| 2026-05-07 19:34 | 45.49380 | 9.55127 | 11359 ft | 273 kts | 175° |
| 2026-05-07 19:35 | 45.47519 | 9.55750 | 12147 ft | 278 kts | 160° |
| 2026-05-07 19:35 | 45.45727 | 9.56833 | 12929 ft | 281 kts | 159° |
| 2026-05-07 19:35 | 45.43914 | 9.57934 | 13697 ft | 285 kts | 160° |
| 2026-05-07 19:35 | 45.42072 | 9.59046 | 14396 ft | 288 kts | 160° |
| 2026-05-07 19:36 | 45.40218 | 9.60161 | 15083 ft | 291 kts | 160° |
| 2026-05-07 19:36 | 45.38340 | 9.61287 | 15768 ft | 294 kts | 160° |
| 2026-05-07 19:36 | 45.36490 | 9.62488 | 16427 ft | 300 kts | 153° |
| 2026-05-07 19:36 | 45.34659 | 9.64120 | 16644 ft | 322 kts | 150° |
| 2026-05-07 19:37 | 45.32690 | 9.65935 | 16775 ft | 344 kts | 149° |
| 2026-05-07 19:37 | 45.30656 | 9.67827 | 16903 ft | 364 kts | 149° |
| 2026-05-07 19:37 | 45.28483 | 9.69853 | 17015 ft | 383 kts | 149° |
| 2026-05-07 19:37 | 45.26224 | 9.71957 | 17413 ft | 392 kts | 149° |
| 2026-05-07 19:38 | 45.23928 | 9.74088 | 17973 ft | 397 kts | 149° |
| 2026-05-07 19:38 | 45.21602 | 9.76242 | 18518 ft | 400 kts | 149° |
| 2026-05-07 19:38 | 45.19257 | 9.78405 | 19025 ft | 404 kts | 149° |
| 2026-05-07 19:38 | 45.16891 | 9.80583 | 19543 ft | 407 kts | 149° |
| 2026-05-07 19:39 | 45.14506 | 9.82778 | 20045 ft | 410 kts | 149° |
| 2026-05-07 19:39 | 45.12108 | 9.84984 | 20584 ft | 412 kts | 149° |
| 2026-05-07 19:39 | 45.09692 | 9.87199 | 21096 ft | 415 kts | 150° |
| 2026-05-07 19:39 | 45.07258 | 9.89426 | 21585 ft | 418 kts | 150° |
| 2026-05-07 19:40 | 45.04804 | 9.91667 | 22059 ft | 421 kts | 150° |
| 2026-05-07 19:40 | 45.02331 | 9.93920 | 22549 ft | 424 kts | 150° |
| 2026-05-07 19:40 | 44.99836 | 9.96183 | 22999 ft | 427 kts | 151° |
| 2026-05-07 19:40 | 44.97296 | 9.98389 | 23452 ft | 430 kts | 153° |
| 2026-05-07 19:41 | 44.94706 | 10.00541 | 23822 ft | 433 kts | 154° |
| 2026-05-07 19:41 | 44.92083 | 10.02667 | 24211 ft | 436 kts | 154° |
| 2026-05-07 19:41 | 44.89442 | 10.04787 | 24593 ft | 438 kts | 154° |
| 2026-05-07 19:41 | 44.86822 | 10.06896 | 24943 ft | 441 kts | 154° |
| 2026-05-07 19:42 | 44.84149 | 10.09063 | 25304 ft | 443 kts | 154° |
| 2026-05-07 19:42 | 44.81478 | 10.11244 | 25669 ft | 446 kts | 154° |
| 2026-05-07 19:42 | 44.78783 | 10.13458 | 26020 ft | 449 kts | 153° |
| 2026-05-07 19:42 | 44.76234 | 10.16066 | 26357 ft | 458 kts | 142° |
| 2026-05-07 19:43 | 44.74034 | 10.19367 | 26695 ft | 468 kts | 131° |
| 2026-05-07 19:43 | 44.72279 | 10.23266 | 26972 ft | 478 kts | 120° |
| 2026-05-07 19:43 | 44.71068 | 10.27662 | 27195 ft | 488 kts | 107° |
| 2026-05-07 19:43 | 44.70483 | 10.32388 | 27513 ft | 495 kts | 96° |
| 2026-05-07 19:44 | 44.70185 | 10.37216 | 27793 ft | 499 kts | 96° |
| 2026-05-07 19:44 | 44.69881 | 10.42099 | 28069 ft | 502 kts | 96° |
| 2026-05-07 19:44 | 44.69572 | 10.46990 | 28344 ft | 505 kts | 97° |
| 2026-05-07 19:44 | 44.69253 | 10.51933 | 28620 ft | 508 kts | 97° |
| 2026-05-07 19:45 | 44.68926 | 10.56895 | 28881 ft | 512 kts | 97° |
| 2026-05-07 19:45 | 44.68592 | 10.61887 | 29140 ft | 515 kts | 97° |
| 2026-05-07 19:45 | 44.68258 | 10.66840 | 29388 ft | 518 kts | 97° |
| 2026-05-07 19:45 | 44.67916 | 10.71890 | 29648 ft | 520 kts | 97° |
| 2026-05-07 19:46 | 44.67575 | 10.76954 | 30021 ft | 521 kts | 97° |
| 2026-05-07 19:46 | 44.67234 | 10.82024 | 30344 ft | 522 kts | 97° |
| 2026-05-07 19:46 | 44.66893 | 10.87097 | 30666 ft | 522 kts | 97° |
| 2026-05-07 19:46 | 44.66546 | 10.92167 | 31002 ft | 521 kts | 97° |
| 2026-05-07 19:47 | 44.66196 | 10.97231 | 31363 ft | 521 kts | 97° |
| 2026-05-07 19:47 | 44.65843 | 11.02288 | 31721 ft | 520 kts | 97° |
| 2026-05-07 19:47 | 44.65491 | 11.07324 | 32184 ft | 516 kts | 97° |
| 2026-05-07 19:47 | 44.65138 | 11.12329 | 32607 ft | 514 kts | 98° |
| 2026-05-07 19:48 | 44.64782 | 11.17341 | 32973 ft | 513 kts | 98° |
| 2026-05-07 19:48 | 44.64429 | 11.22302 | 33320 ft | 513 kts | 98° |
| 2026-05-07 19:48 | 44.64071 | 11.27290 | 33608 ft | 512 kts | 98° |
| 2026-05-07 19:48 | 44.63714 | 11.32263 | 33958 ft | 512 kts | 98° |
| 2026-05-07 19:49 | 44.63357 | 11.37222 | 34246 ft | 511 kts | 98° |
| 2026-05-07 19:49 | 44.62996 | 11.42187 | 34537 ft | 511 kts | 98° |
| 2026-05-07 19:49 | 44.62630 | 11.47149 | 34826 ft | 511 kts | 98° |
| 2026-05-07 19:49 | 44.62260 | 11.52107 | 35119 ft | 510 kts | 98° |
| 2026-05-07 19:50 | 44.61890 | 11.57060 | 35404 ft | 510 kts | 98° |
| 2026-05-07 19:50 | 44.61520 | 11.62007 | 35685 ft | 509 kts | 98° |
| 2026-05-07 19:50 | 44.61148 | 11.66947 | 35954 ft | 509 kts | 98° |
| 2026-05-07 19:50 | 44.60777 | 11.71882 | 36222 ft | 508 kts | 98° |
| 2026-05-07 19:51 | 44.60409 | 11.76744 | 36468 ft | 508 kts | 98° |
| 2026-05-07 19:51 | 44.60031 | 11.81665 | 36723 ft | 507 kts | 98° |
| 2026-05-07 19:51 | 44.59649 | 11.86581 | 36948 ft | 507 kts | 98° |
| 2026-05-07 19:51 | 44.59252 | 11.91496 | 37024 ft | 507 kts | 101° |
| 2026-05-07 19:52 | 44.57367 | 12.00908 | 37029 ft | 498 kts | 118° |
| 2026-05-07 19:52 | 44.54343 | 12.09609 | 37019 ft | 496 kts | 121° |
| 2026-05-07 19:53 | 44.51297 | 12.18314 | 37014 ft | 498 kts | 121° |
| 2026-05-07 19:53 | 44.48260 | 12.27027 | 37010 ft | 498 kts | 121° |
| 2026-05-07 19:54 | 44.45210 | 12.35726 | 37013 ft | 498 kts | 121° |
| 2026-05-07 19:54 | 44.42139 | 12.44406 | 37017 ft | 498 kts | 121° |
| 2026-05-07 19:55 | 44.39074 | 12.53087 | 37007 ft | 498 kts | 121° |
| 2026-05-07 19:55 | 44.35998 | 12.61759 | 37014 ft | 498 kts | 121° |
| 2026-05-07 19:56 | 44.32927 | 12.70358 | 37024 ft | 498 kts | 121° |
| 2026-05-07 19:56 | 44.29831 | 12.79010 | 37008 ft | 498 kts | 121° |
| 2026-05-07 19:57 | 44.26728 | 12.87650 | 37016 ft | 498 kts | 121° |
| 2026-05-07 19:57 | 44.23630 | 12.96289 | 37019 ft | 498 kts | 121° |
| 2026-05-07 19:58 | 44.20525 | 13.04922 | 37026 ft | 498 kts | 121° |
| 2026-05-07 19:58 | 44.17407 | 13.13543 | 37008 ft | 498 kts | 122° |
| 2026-05-07 19:59 | 44.14276 | 13.22162 | 37024 ft | 498 kts | 122° |
| 2026-05-07 19:59 | 44.11139 | 13.30773 | 37040 ft | 498 kts | 122° |
| 2026-05-07 20:00 | 44.08017 | 13.39306 | 37042 ft | 498 kts | 122° |
| 2026-05-07 20:00 | 44.04868 | 13.47885 | 37045 ft | 498 kts | 122° |
| 2026-05-07 20:01 | 44.01716 | 13.56459 | 37031 ft | 498 kts | 122° |
| 2026-05-07 20:01 | 43.98560 | 13.65026 | 37040 ft | 498 kts | 122° |
| 2026-05-07 20:02 | 43.95398 | 13.73587 | 37041 ft | 498 kts | 122° |
| 2026-05-07 20:02 | 43.92229 | 13.82137 | 37047 ft | 498 kts | 122° |
| 2026-05-07 20:03 | 43.89052 | 13.90680 | 37050 ft | 498 kts | 122° |
| 2026-05-07 20:03 | 43.85883 | 13.99163 | 37054 ft | 498 kts | 122° |
| 2026-05-07 20:04 | 43.82667 | 14.07745 | 37053 ft | 498 kts | 122° |
| 2026-05-07 20:04 | 43.79534 | 14.16227 | 37051 ft | 501 kts | 118° |
| 2026-05-07 20:05 | 43.77358 | 14.25450 | 37032 ft | 506 kts | 110° |
| 2026-05-07 20:05 | 43.75394 | 14.34802 | 37038 ft | 506 kts | 110° |
| 2026-05-07 20:06 | 43.73407 | 14.44150 | 37048 ft | 507 kts | 110° |
| 2026-05-07 20:06 | 43.71406 | 14.53494 | 37052 ft | 507 kts | 110° |
| 2026-05-07 20:07 | 43.69392 | 14.62833 | 37057 ft | 507 kts | 110° |
| 2026-05-07 20:07 | 43.67380 | 14.72171 | 37058 ft | 507 kts | 110° |
| 2026-05-07 20:08 | 43.65701 | 14.79930 | 37064 ft | 507 kts | 110° |
| 2026-05-07 20:08 | 43.63674 | 14.89256 | 37038 ft | 507 kts | 111° |
| 2026-05-07 20:09 | 43.61307 | 15.00096 | 37029 ft | 507 kts | 111° |
| 2026-05-07 20:10 | 43.58573 | 15.12569 | 37040 ft | 508 kts | 111° |
| 2026-05-07 20:10 | 43.56511 | 15.21906 | 37048 ft | 508 kts | 111° |
| 2026-05-07 20:11 | 43.54454 | 15.31166 | 37029 ft | 508 kts | 111° |
| 2026-05-07 20:11 | 43.52381 | 15.40474 | 37044 ft | 508 kts | 111° |
| 2026-05-07 20:12 | 43.50292 | 15.49781 | 37057 ft | 508 kts | 111° |
| 2026-05-07 20:12 | 43.48206 | 15.59086 | 37059 ft | 508 kts | 111° |
| 2026-05-07 20:13 | 43.46113 | 15.68385 | 37054 ft | 508 kts | 111° |
| 2026-05-07 20:13 | 43.44008 | 15.77676 | 37058 ft | 508 kts | 111° |
| 2026-05-07 20:14 | 43.41890 | 15.86954 | 37057 ft | 508 kts | 111° |
| 2026-05-07 20:14 | 43.39771 | 15.96228 | 37069 ft | 508 kts | 111° |
| 2026-05-07 20:15 | 43.37640 | 16.05491 | 37059 ft | 508 kts | 111° |
| 2026-05-07 20:15 | 43.35507 | 16.14753 | 36855 ft | 508 kts | 111° |
| 2026-05-07 20:15 | 43.34441 | 16.19379 | 36595 ft | 508 kts | 111° |
| 2026-05-07 20:16 | 43.33373 | 16.24002 | 36045 ft | 509 kts | 112° |
| 2026-05-07 20:16 | 43.32287 | 16.28671 | 35024 ft | 516 kts | 112° |
| 2026-05-07 20:16 | 43.31200 | 16.33325 | 34093 ft | 521 kts | 112° |
| 2026-05-07 20:16 | 43.30093 | 16.38065 | 33274 ft | 520 kts | 112° |
| 2026-05-07 20:17 | 43.28991 | 16.42791 | 32354 ft | 521 kts | 111° |
| 2026-05-07 20:17 | 43.27880 | 16.47534 | 31368 ft | 523 kts | 111° |
| 2026-05-07 20:17 | 43.26760 | 16.52297 | 30387 ft | 526 kts | 110° |
| 2026-05-07 20:17 | 43.25633 | 16.57076 | 29249 ft | 525 kts | 110° |
| 2026-05-07 20:18 | 43.24518 | 16.61821 | 27538 ft | 522 kts | 110° |
| 2026-05-07 20:18 | 43.23415 | 16.66517 | 26146 ft | 513 kts | 110° |
| 2026-05-07 20:18 | 43.22340 | 16.71084 | 25331 ft | 492 kts | 111° |
| 2026-05-07 20:18 | 43.21311 | 16.75451 | 24565 ft | 472 kts | 111° |
| 2026-05-07 20:19 | 43.20312 | 16.79656 | 23816 ft | 456 kts | 111° |
| 2026-05-07 20:19 | 43.19345 | 16.83713 | 23010 ft | 440 kts | 111° |
| 2026-05-07 20:19 | 43.18413 | 16.87623 | 22348 ft | 425 kts | 111° |
| 2026-05-07 20:19 | 43.17494 | 16.91465 | 21701 ft | 423 kts | 111° |
| 2026-05-07 20:20 | 43.16577 | 16.95279 | 21067 ft | 420 kts | 111° |
| 2026-05-07 20:20 | 43.15661 | 16.99075 | 20466 ft | 419 kts | 111° |
| 2026-05-07 20:20 | 43.14757 | 17.02830 | 20196 ft | 409 kts | 111° |
| 2026-05-07 20:20 | 43.13833 | 17.06454 | 19879 ft | 398 kts | 117° |
| 2026-05-07 20:21 | 43.12555 | 17.09757 | 19456 ft | 389 kts | 127° |
| 2026-05-07 20:21 | 43.11087 | 17.12842 | 19019 ft | 385 kts | 127° |
| 2026-05-07 20:21 | 43.09630 | 17.15902 | 18578 ft | 382 kts | 127° |
| 2026-05-07 20:21 | 43.08181 | 17.18948 | 18117 ft | 380 kts | 127° |
| 2026-05-07 20:22 | 43.06750 | 17.21968 | 17634 ft | 377 kts | 126° |
| 2026-05-07 20:22 | 43.05331 | 17.24963 | 17182 ft | 374 kts | 126° |
| 2026-05-07 20:22 | 43.03922 | 17.27932 | 16671 ft | 367 kts | 126° |
| 2026-05-07 20:22 | 43.02558 | 17.30805 | 15841 ft | 363 kts | 126° |
| 2026-05-07 20:23 | 43.01191 | 17.33682 | 15052 ft | 359 kts | 126° |
| 2026-05-07 20:23 | 42.99843 | 17.36523 | 14281 ft | 354 kts | 126° |
| 2026-05-07 20:23 | 42.98510 | 17.39324 | 13481 ft | 349 kts | 126° |
| 2026-05-07 20:23 | 42.97192 | 17.42085 | 12659 ft | 345 kts | 126° |
| 2026-05-07 20:24 | 42.95886 | 17.44814 | 12065 ft | 340 kts | 126° |
| 2026-05-07 20:24 | 42.94629 | 17.47445 | 11632 ft | 324 kts | 127° |
| 2026-05-07 20:24 | 42.93413 | 17.49992 | 11060 ft | 317 kts | 127° |
| 2026-05-07 20:24 | 42.92213 | 17.52506 | 10921 ft | 316 kts | 127° |
| 2026-05-07 20:25 | 42.91012 | 17.55020 | 10792 ft | 316 kts | 127° |
| 2026-05-07 20:25 | 42.89811 | 17.57530 | 10646 ft | 315 kts | 127° |
| 2026-05-07 20:25 | 42.88609 | 17.60037 | 10515 ft | 314 kts | 127° |
| 2026-05-07 20:25 | 42.87399 | 17.62549 | 10371 ft | 312 kts | 128° |
| 2026-05-07 20:26 | 42.86223 | 17.64985 | 10237 ft | 307 kts | 128° |
| 2026-05-07 20:26 | 42.85074 | 17.67373 | 10118 ft | 296 kts | 128° |
| 2026-05-07 20:26 | 42.83963 | 17.69686 | 9998 ft | 287 kts | 128° |
| 2026-05-07 20:26 | 42.82885 | 17.71930 | 9826 ft | 280 kts | 128° |
| 2026-05-07 20:27 | 42.81837 | 17.74100 | 9503 ft | 276 kts | 128° |
| 2026-05-07 20:27 | 42.80779 | 17.76277 | 9173 ft | 275 kts | 128° |
| 2026-05-07 20:27 | 42.79735 | 17.78427 | 8984 ft | 268 kts | 128° |
| 2026-05-07 20:27 | 42.78722 | 17.80517 | 8744 ft | 262 kts | 128° |
| 2026-05-07 20:28 | 42.77725 | 17.82577 | 8428 ft | 259 kts | 128° |
| 2026-05-07 20:28 | 42.76736 | 17.84617 | 8110 ft | 257 kts | 127° |
| 2026-05-07 20:28 | 42.75752 | 17.86635 | 7780 ft | 254 kts | 130° |
| 2026-05-07 20:28 | 42.74564 | 17.88368 | 7453 ft | 247 kts | 144° |
| 2026-05-07 20:29 | 42.73155 | 17.89665 | 7084 ft | 245 kts | 150° |
| 2026-05-07 20:29 | 42.71684 | 17.90945 | 6430 ft | 256 kts | 150° |
| 2026-05-07 20:29 | 42.70205 | 17.92285 | 5734 ft | 253 kts | 143° |
| 2026-05-07 20:29 | 42.69072 | 17.94026 | 5081 ft | 242 kts | 125° |
| 2026-05-07 20:30 | 42.68277 | 17.95965 | 4596 ft | 226 kts | 120° |
| 2026-05-07 20:30 | 42.67593 | 17.97758 | 4408 ft | 202 kts | 121° |
| 2026-05-07 20:30 | 42.66962 | 17.99381 | 4303 ft | 186 kts | 121° |
| 2026-05-07 20:30 | 42.66385 | 18.00852 | 4248 ft | 165 kts | 122° |
| 2026-05-07 20:31 | 42.65877 | 18.02146 | 4163 ft | 150 kts | 122° |
| 2026-05-07 20:31 | 42.65391 | 18.03380 | 3987 ft | 146 kts | 122° |
| 2026-05-07 20:31 | 42.64913 | 18.04592 | 3813 ft | 146 kts | 122° |
| 2026-05-07 20:31 | 42.64435 | 18.05805 | 3623 ft | 145 kts | 122° |
| 2026-05-07 20:32 | 42.63960 | 18.07013 | 3440 ft | 144 kts | 121° |
| 2026-05-07 20:32 | 42.63488 | 18.08210 | 3252 ft | 143 kts | 121° |
| 2026-05-07 20:32 | 42.63020 | 18.09398 | 3058 ft | 141 kts | 120° |
| 2026-05-07 20:32 | 42.62561 | 18.10564 | 2872 ft | 138 kts | 120° |
| 2026-05-07 20:33 | 42.62113 | 18.11701 | 2693 ft | 136 kts | 119° |
| 2026-05-07 20:33 | 42.61668 | 18.12828 | 2513 ft | 134 kts | 119° |
| 2026-05-07 20:33 | 42.61238 | 18.13918 | 2341 ft | 129 kts | 118° |
| 2026-05-07 20:33 | 42.60818 | 18.14984 | 2157 ft | 128 kts | 118° |
| 2026-05-07 20:34 | 42.60398 | 18.16046 | 1990 ft | 127 kts | 118° |
| 2026-05-07 20:34 | 42.59974 | 18.17111 | 1819 ft | 129 kts | 117° |
| 2026-05-07 20:34 | 42.59539 | 18.18161 | 1688 ft | 129 kts | 118° |
| 2026-05-07 20:34 | 42.59108 | 18.19228 | 1532 ft | 128 kts | 115° |
| 2026-05-07 20:35 | 42.58712 | 18.20318 | 1396 ft | 131 kts | 115° |
| 2026-05-07 20:35 | 42.58278 | 18.21397 | 1166 ft | 129 kts | 115° |
| 2026-05-07 20:35 | 42.57859 | 18.22464 | 947 ft | 127 kts | 114° |
| 2026-05-07 20:35 | 42.57446 | 18.23526 | 785 ft | 127 kts | 116° |
| 2026-05-07 20:36 | 42.57036 | 18.24572 | 627 ft | 124 kts | 116° |
| 2026-05-07 20:36 | 42.56630 | 18.25590 | 535 ft | 117 kts | 117° |
| 2026-05-07 20:36 | 42.56339 | 18.26323 | 523 ft | 47 kts | 118° |
| 2026-05-07 20:36 | 42.56221 | 18.26614 | 521 ft | 15 kts | 124° |
| 2026-05-07 20:37 | 42.56142 | 18.26589 | 520 ft | 8 kts | 241° |
| 2026-05-07 20:37 | 42.56141 | 18.26586 | 520 ft | 0 kts | 242° |
| 2026-05-07 20:38 | 42.56123 | 18.26543 | 520 ft | 8 kts | 242° |
| 2026-05-07 20:38 | 42.56103 | 18.26483 | 521 ft | 6 kts | 258° |
| 2026-05-07 20:38 | 42.56097 | 18.26433 | 521 ft | 4 kts | 245° |
| 2026-05-07 20:38 | 42.56084 | 18.26421 | 521 ft | 2 kts | 203° |
| 2026-05-07 20:39 | 42.56071 | 18.26413 | 521 ft | 5 kts | 205° |
| 2026-05-07 20:39 | 42.56043 | 18.26393 | 521 ft | 0 kts | 208° |